sensor_id;sensor_type;location;lat;lon;timestamp;temperature;humidity
28863;DHT22;15994;51.796;13.006;2022-09-09T00:01:50;13.30;99.90
28863;DHT22;15994;51.796;13.006;2022-09-09T00:04:30;13.40;99.90
28863;DHT22;15994;51.796;13.006;2022-09-09T00:07:10;13.40;99.90
28863;DHT22;15994;51.796;13.006;2022-09-09T00:09:47;13.40;99.90
28863;DHT22;15994;51.796;13.006;2022-09-09T00:12:43;13.40;99.90
28863;DHT22;15994;51.796;13.006;2022-09-09T00:15:19;13.40;99.90
28863;DHT22;15994;51.796;13.006;2022-09-09T00:17:56;13.40;99.90
28863;DHT22;15994;51.796;13.006;2022-09-09T00:26:44;13.50;99.90
28863;DHT22;15994;51.796;13.006;2022-09-09T00:29:26;13.40;99.90
28863;DHT22;15994;51.796;13.006;2022-09-09T00:32:00;13.40;99.90
28863;DHT22;15994;51.796;13.006;2022-09-09T00:34:32;13.40;99.90
28863;DHT22;15994;51.796;13.006;2022-09-09T00:36:59;13.30;99.90
28863;DHT22;15994;51.796;13.006;2022-09-09T00:39:39;13.30;99.90
28863;DHT22;15994;51.796;13.006;2022-09-09T00:42:20;13.30;99.90
28863;DHT22;15994;51.796;13.006;2022-09-09T00:46:16;13.30;99.90
28863;DHT22;15994;51.796;13.006;2022-09-09T00:48:11;13.30;99.90
28863;DHT22;15994;51.796;13.006;2022-09-09T00:56:14;13.30;99.90
28863;DHT22;15994;51.796;13.006;2022-09-09T00:58:51;13.20;99.90
28863;DHT22;15994;51.796;13.006;2022-09-09T01:01:22;13.20;99.90
28863;DHT22;15994;51.796;13.006;2022-09-09T01:03:54;13.20;99.90
28863;DHT22;15994;51.796;13.006;2022-09-09T01:06:35;13.10;99.90
28863;DHT22;15994;51.796;13.006;2022-09-09T01:09:26;13.10;99.90
28863;DHT22;15994;51.796;13.006;2022-09-09T01:12:09;13.10;99.90
28863;DHT22;15994;51.796;13.006;2022-09-09T01:17:19;13.10;99.90
28863;DHT22;15994;51.796;13.006;2022-09-09T01:28:16;13.00;99.90
28863;DHT22;15994;51.796;13.006;2022-09-09T01:30:45;12.90;99.90
28863;DHT22;15994;51.796;13.006;2022-09-09T01:33:17;12.90;99.90
28863;DHT22;15994;51.796;13.006;2022-09-09T01:36:00;12.90;99.90
28863;DHT22;15994;51.796;13.006;2022-09-09T01:38:30;12.80;99.90
28863;DHT22;15994;51.796;13.006;2022-09-09T01:40:58;12.80;99.90
28863;DHT22;15994;51.796;13.006;2022-09-09T01:43:25;12.80;99.90
28863;DHT22;15994;51.796;13.006;2022-09-09T01:45:54;12.80;99.90
28863;DHT22;15994;51.796;13.006;2022-09-09T01:48:23;12.90;99.90
28863;DHT22;15994;51.796;13.006;2022-09-09T01:50:51;12.80;99.90
28863;DHT22;15994;51.796;13.006;2022-09-09T01:53:19;12.80;99.90
28863;DHT22;15994;51.796;13.006;2022-09-09T01:56:18;12.80;99.90
28863;DHT22;15994;51.796;13.006;2022-09-09T02:02:13;12.80;99.90
28863;DHT22;15994;51.796;13.006;2022-09-09T02:04:51;12.80;99.90
28863;DHT22;15994;51.796;13.006;2022-09-09T02:07:42;12.80;99.90
28863;DHT22;15994;51.796;13.006;2022-09-09T02:10:19;12.80;99.90
28863;DHT22;15994;51.796;13.006;2022-09-09T02:13:03;12.80;99.90
28863;DHT22;15994;51.796;13.006;2022-09-09T02:15:56;12.80;99.90
28863;DHT22;15994;51.796;13.006;2022-09-09T02:18:28;12.80;99.90
28863;DHT22;15994;51.796;13.006;2022-09-09T02:20:57;12.70;99.90
28863;DHT22;15994;51.796;13.006;2022-09-09T02:23:25;12.70;99.90
28863;DHT22;15994;51.796;13.006;2022-09-09T02:25:54;12.70;99.90
28863;DHT22;15994;51.796;13.006;2022-09-09T02:28:25;12.60;99.90
28863;DHT22;15994;51.796;13.006;2022-09-09T02:30:52;12.70;99.90
28863;DHT22;15994;51.796;13.006;2022-09-09T02:33:23;12.70;99.90
28863;DHT22;15994;51.796;13.006;2022-09-09T02:35:51;12.70;99.90
28863;DHT22;15994;51.796;13.006;2022-09-09T02:38:20;12.70;99.90
28863;DHT22;15994;51.796;13.006;2022-09-09T02:40:48;12.60;99.90
28863;DHT22;15994;51.796;13.006;2022-09-09T02:43:15;12.60;99.90
28863;DHT22;15994;51.796;13.006;2022-09-09T02:45:50;12.60;99.90
28863;DHT22;15994;51.796;13.006;2022-09-09T02:48:44;12.60;99.90
28863;DHT22;15994;51.796;13.006;2022-09-09T02:51:28;12.60;99.90
28863;DHT22;15994;51.796;13.006;2022-09-09T02:54:27;12.60;99.90
28863;DHT22;15994;51.796;13.006;2022-09-09T02:57:08;12.60;99.90
28863;DHT22;15994;51.796;13.006;2022-09-09T02:59:37;12.50;99.90
28863;DHT22;15994;51.796;13.006;2022-09-09T03:02:04;12.50;99.90
28863;DHT22;15994;51.796;13.006;2022-09-09T03:04:31;12.50;99.90
28863;DHT22;15994;51.796;13.006;2022-09-09T03:06:58;12.50;99.90
28863;DHT22;15994;51.796;13.006;2022-09-09T03:09:25;12.50;99.90
28863;DHT22;15994;51.796;13.006;2022-09-09T03:11:52;12.50;99.90
28863;DHT22;15994;51.796;13.006;2022-09-09T03:14:20;12.50;99.90
28863;DHT22;15994;51.796;13.006;2022-09-09T03:16:50;12.50;99.90
28863;DHT22;15994;51.796;13.006;2022-09-09T03:19:16;12.50;99.90
28863;DHT22;15994;51.796;13.006;2022-09-09T03:21:44;12.50;99.90
28863;DHT22;15994;51.796;13.006;2022-09-09T03:24:11;12.40;99.90
28863;DHT22;15994;51.796;13.006;2022-09-09T03:26:37;12.40;99.90
28863;DHT22;15994;51.796;13.006;2022-09-09T03:29:06;12.40;99.90
28863;DHT22;15994;51.796;13.006;2022-09-09T03:31:36;12.40;99.90
28863;DHT22;15994;51.796;13.006;2022-09-09T03:34:02;12.30;99.90
28863;DHT22;15994;51.796;13.006;2022-09-09T03:36:29;12.30;99.90
28863;DHT22;15994;51.796;13.006;2022-09-09T03:38:55;12.30;99.90
28863;DHT22;15994;51.796;13.006;2022-09-09T03:41:23;12.30;99.90
28863;DHT22;15994;51.796;13.006;2022-09-09T03:43:53;12.30;99.90
28863;DHT22;15994;51.796;13.006;2022-09-09T03:46:21;12.20;99.90
28863;DHT22;15994;51.796;13.006;2022-09-09T03:48:48;12.20;99.90
28863;DHT22;15994;51.796;13.006;2022-09-09T03:51:15;12.20;99.90
28863;DHT22;15994;51.796;13.006;2022-09-09T03:53:42;12.20;99.90
28863;DHT22;15994;51.796;13.006;2022-09-09T03:56:08;12.20;99.90
28863;DHT22;15994;51.796;13.006;2022-09-09T03:58:36;12.20;99.90
28863;DHT22;15994;51.796;13.006;2022-09-09T04:01:06;12.20;99.90
28863;DHT22;15994;51.796;13.006;2022-09-09T04:03:33;12.10;99.90
28863;DHT22;15994;51.796;13.006;2022-09-09T04:06:04;12.10;99.90
28863;DHT22;15994;51.796;13.006;2022-09-09T04:08:31;12.00;99.90
28863;DHT22;15994;51.796;13.006;2022-09-09T04:10:58;12.00;99.90
28863;DHT22;15994;51.796;13.006;2022-09-09T04:13:27;12.00;99.90
28863;DHT22;15994;51.796;13.006;2022-09-09T04:15:55;12.00;99.90
28863;DHT22;15994;51.796;13.006;2022-09-09T04:18:22;12.10;99.90
28863;DHT22;15994;51.796;13.006;2022-09-09T04:20:50;12.10;99.90
28863;DHT22;15994;51.796;13.006;2022-09-09T04:23:17;12.10;99.90
28863;DHT22;15994;51.796;13.006;2022-09-09T04:25:49;12.10;99.90
28863;DHT22;15994;51.796;13.006;2022-09-09T04:28:17;12.10;99.90
28863;DHT22;15994;51.796;13.006;2022-09-09T04:30:45;12.10;99.90
28863;DHT22;15994;51.796;13.006;2022-09-09T04:33:12;12.10;99.90
28863;DHT22;15994;51.796;13.006;2022-09-09T04:35:39;12.20;99.90
28863;DHT22;15994;51.796;13.006;2022-09-09T04:38:10;12.10;99.90
28863;DHT22;15994;51.796;13.006;2022-09-09T04:40:36;12.20;99.90
28863;DHT22;15994;51.796;13.006;2022-09-09T04:43:08;12.20;99.90
28863;DHT22;15994;51.796;13.006;2022-09-09T04:45:35;12.20;99.90
28863;DHT22;15994;51.796;13.006;2022-09-09T04:48:02;12.20;99.90
28863;DHT22;15994;51.796;13.006;2022-09-09T04:50:29;12.20;99.90
28863;DHT22;15994;51.796;13.006;2022-09-09T04:52:55;12.20;99.90
28863;DHT22;15994;51.796;13.006;2022-09-09T04:55:22;12.20;99.90
28863;DHT22;15994;51.796;13.006;2022-09-09T04:57:49;12.20;99.90
28863;DHT22;15994;51.796;13.006;2022-09-09T05:00:15;12.20;99.90
28863;DHT22;15994;51.796;13.006;2022-09-09T05:02:42;12.20;99.90
28863;DHT22;15994;51.796;13.006;2022-09-09T05:05:09;12.20;99.90
28863;DHT22;15994;51.796;13.006;2022-09-09T05:07:36;12.20;99.90
28863;DHT22;15994;51.796;13.006;2022-09-09T05:10:03;12.30;99.90
28863;DHT22;15994;51.796;13.006;2022-09-09T05:12:31;12.30;99.90
28863;DHT22;15994;51.796;13.006;2022-09-09T05:14:58;12.40;99.90
28863;DHT22;15994;51.796;13.006;2022-09-09T05:17:24;12.40;99.90
28863;DHT22;15994;51.796;13.006;2022-09-09T05:19:51;12.50;99.90
28863;DHT22;15994;51.796;13.006;2022-09-09T05:22:19;12.60;99.90
28863;DHT22;15994;51.796;13.006;2022-09-09T05:24:46;12.50;99.90
28863;DHT22;15994;51.796;13.006;2022-09-09T05:27:17;12.60;99.90
28863;DHT22;15994;51.796;13.006;2022-09-09T05:29:44;12.70;99.90
28863;DHT22;15994;51.796;13.006;2022-09-09T05:32:11;12.70;99.90
28863;DHT22;15994;51.796;13.006;2022-09-09T05:34:39;12.80;99.90
28863;DHT22;15994;51.796;13.006;2022-09-09T05:37:05;12.90;99.90
28863;DHT22;15994;51.796;13.006;2022-09-09T05:39:33;12.90;99.90
28863;DHT22;15994;51.796;13.006;2022-09-09T05:42:01;13.00;99.90
28863;DHT22;15994;51.796;13.006;2022-09-09T05:44:28;13.00;99.90
28863;DHT22;15994;51.796;13.006;2022-09-09T05:46:54;13.10;99.90
28863;DHT22;15994;51.796;13.006;2022-09-09T05:49:21;13.10;99.90
28863;DHT22;15994;51.796;13.006;2022-09-09T05:51:48;13.20;99.90
28863;DHT22;15994;51.796;13.006;2022-09-09T05:54:16;13.30;99.90
28863;DHT22;15994;51.796;13.006;2022-09-09T05:56:42;13.40;99.90
28863;DHT22;15994;51.796;13.006;2022-09-09T05:59:09;13.40;99.90
28863;DHT22;15994;51.796;13.006;2022-09-09T06:01:37;13.50;99.90
28863;DHT22;15994;51.796;13.006;2022-09-09T06:04:05;13.50;99.90
28863;DHT22;15994;51.796;13.006;2022-09-09T06:06:34;13.60;99.90
28863;DHT22;15994;51.796;13.006;2022-09-09T06:09:03;13.60;99.90
28863;DHT22;15994;51.796;13.006;2022-09-09T06:11:34;13.70;99.90
28863;DHT22;15994;51.796;13.006;2022-09-09T06:14:01;13.80;99.90
28863;DHT22;15994;51.796;13.006;2022-09-09T06:16:29;13.80;99.90
28863;DHT22;15994;51.796;13.006;2022-09-09T06:18:57;13.90;99.90
28863;DHT22;15994;51.796;13.006;2022-09-09T06:21:28;14.00;99.90
28863;DHT22;15994;51.796;13.006;2022-09-09T06:23:56;14.10;99.90
28863;DHT22;15994;51.796;13.006;2022-09-09T06:26:27;14.20;99.90
28863;DHT22;15994;51.796;13.006;2022-09-09T06:28:56;14.30;99.90
28863;DHT22;15994;51.796;13.006;2022-09-09T06:31:26;14.40;99.90
28863;DHT22;15994;51.796;13.006;2022-09-09T06:33:56;14.40;99.90
28863;DHT22;15994;51.796;13.006;2022-09-09T06:36:25;14.50;99.90
28863;DHT22;15994;51.796;13.006;2022-09-09T06:38:53;14.60;99.90
28863;DHT22;15994;51.796;13.006;2022-09-09T06:41:22;14.60;99.90
28863;DHT22;15994;51.796;13.006;2022-09-09T06:43:48;14.70;99.90
28863;DHT22;15994;51.796;13.006;2022-09-09T06:46:22;14.80;99.90
28863;DHT22;15994;51.796;13.006;2022-09-09T06:48:49;14.90;99.90
28863;DHT22;15994;51.796;13.006;2022-09-09T06:51:23;15.00;99.90
28863;DHT22;15994;51.796;13.006;2022-09-09T06:53:51;15.10;99.90
28863;DHT22;15994;51.796;13.006;2022-09-09T06:58:55;15.40;99.90
28863;DHT22;15994;51.796;13.006;2022-09-09T07:01:24;15.50;99.90
28863;DHT22;15994;51.796;13.006;2022-09-09T07:03:52;15.60;99.90
28863;DHT22;15994;51.796;13.006;2022-09-09T07:06:27;15.60;99.90
28863;DHT22;15994;51.796;13.006;2022-09-09T07:08:56;15.70;99.90
28863;DHT22;15994;51.796;13.006;2022-09-09T07:11:28;15.80;99.90
28863;DHT22;15994;51.796;13.006;2022-09-09T07:13:57;15.80;99.90
28863;DHT22;15994;51.796;13.006;2022-09-09T07:16:25;15.90;99.90
28863;DHT22;15994;51.796;13.006;2022-09-09T07:18:53;15.90;99.90
28863;DHT22;15994;51.796;13.006;2022-09-09T07:21:23;16.10;99.90
28863;DHT22;15994;51.796;13.006;2022-09-09T07:23:51;16.20;99.90
28863;DHT22;15994;51.796;13.006;2022-09-09T07:26:20;16.20;99.90
28863;DHT22;15994;51.796;13.006;2022-09-09T07:28:48;16.30;99.90
28863;DHT22;15994;51.796;13.006;2022-09-09T07:33:43;16.40;99.90
28863;DHT22;15994;51.796;13.006;2022-09-09T07:36:14;16.50;99.90
28863;DHT22;15994;51.796;13.006;2022-09-09T07:38:49;16.50;99.90
28863;DHT22;15994;51.796;13.006;2022-09-09T07:41:20;16.70;99.90
28863;DHT22;15994;51.796;13.006;2022-09-09T07:43:50;16.80;99.90
28863;DHT22;15994;51.796;13.006;2022-09-09T07:46:19;16.90;99.90
28863;DHT22;15994;51.796;13.006;2022-09-09T07:48:48;17.00;99.90
28863;DHT22;15994;51.796;13.006;2022-09-09T07:51:18;17.10;99.90
28863;DHT22;15994;51.796;13.006;2022-09-09T07:53:51;17.10;99.90
28863;DHT22;15994;51.796;13.006;2022-09-09T07:56:19;17.30;99.90
28863;DHT22;15994;51.796;13.006;2022-09-09T07:58:49;17.50;99.90
28863;DHT22;15994;51.796;13.006;2022-09-09T08:01:20;17.60;99.90
28863;DHT22;15994;51.796;13.006;2022-09-09T08:03:54;17.80;99.90
28863;DHT22;15994;51.796;13.006;2022-09-09T08:06:21;18.00;99.90
28863;DHT22;15994;51.796;13.006;2022-09-09T08:08:50;18.10;99.90
28863;DHT22;15994;51.796;13.006;2022-09-09T08:11:18;18.10;99.90
28863;DHT22;15994;51.796;13.006;2022-09-09T08:13:44;18.20;99.90
28863;DHT22;15994;51.796;13.006;2022-09-09T08:16:16;18.30;99.90
28863;DHT22;15994;51.796;13.006;2022-09-09T08:18:43;18.30;99.90
28863;DHT22;15994;51.796;13.006;2022-09-09T08:21:17;18.30;99.90
28863;DHT22;15994;51.796;13.006;2022-09-09T08:23:45;18.30;99.90
28863;DHT22;15994;51.796;13.006;2022-09-09T08:26:17;18.30;99.90
28863;DHT22;15994;51.796;13.006;2022-09-09T08:28:47;18.40;99.90
28863;DHT22;15994;51.796;13.006;2022-09-09T08:31:16;18.50;99.90
28863;DHT22;15994;51.796;13.006;2022-09-09T08:33:44;18.50;99.90
28863;DHT22;15994;51.796;13.006;2022-09-09T08:36:15;18.60;99.90
28863;DHT22;15994;51.796;13.006;2022-09-09T08:38:43;18.60;99.90
28863;DHT22;15994;51.796;13.006;2022-09-09T08:43:50;18.70;99.90
28863;DHT22;15994;51.796;13.006;2022-09-09T08:46:39;18.70;99.90
28863;DHT22;15994;51.796;13.006;2022-09-09T08:51:57;18.70;99.90
28863;DHT22;15994;51.796;13.006;2022-09-09T08:54:26;18.80;99.90
28863;DHT22;15994;51.796;13.006;2022-09-09T08:56:56;19.00;99.90
28863;DHT22;15994;51.796;13.006;2022-09-09T08:59:22;19.00;99.90
28863;DHT22;15994;51.796;13.006;2022-09-09T09:02:15;19.10;99.90
28863;DHT22;15994;51.796;13.006;2022-09-09T09:05:05;19.10;99.90
28863;DHT22;15994;51.796;13.006;2022-09-09T09:08:10;19.20;99.90
28863;DHT22;15994;51.796;13.006;2022-09-09T09:10:46;19.30;99.90
28863;DHT22;15994;51.796;13.006;2022-09-09T09:13:59;19.40;99.90
28863;DHT22;15994;51.796;13.006;2022-09-09T09:16:20;19.50;99.90
28863;DHT22;15994;51.796;13.006;2022-09-09T09:18:48;19.60;99.90
28863;DHT22;15994;51.796;13.006;2022-09-09T09:21:21;19.60;99.90
28863;DHT22;15994;51.796;13.006;2022-09-09T09:23:56;19.60;99.90
28863;DHT22;15994;51.796;13.006;2022-09-09T09:26:32;19.70;99.90
28863;DHT22;15994;51.796;13.006;2022-09-09T09:28:59;19.70;99.90
28863;DHT22;15994;51.796;13.006;2022-09-09T09:31:28;19.90;99.90
28863;DHT22;15994;51.796;13.006;2022-09-09T09:33:55;20.00;99.90
28863;DHT22;15994;51.796;13.006;2022-09-09T09:36:41;20.00;99.90
28863;DHT22;15994;51.796;13.006;2022-09-09T09:39:10;20.00;99.90
28863;DHT22;15994;51.796;13.006;2022-09-09T09:41:39;20.00;99.90
28863;DHT22;15994;51.796;13.006;2022-09-09T09:44:29;20.00;99.90
28863;DHT22;15994;51.796;13.006;2022-09-09T09:47:21;19.90;99.90
28863;DHT22;15994;51.796;13.006;2022-09-09T09:49:55;19.90;99.90
28863;DHT22;15994;51.796;13.006;2022-09-09T09:52:26;20.00;99.90
28863;DHT22;15994;51.796;13.006;2022-09-09T09:54:54;20.10;99.90
28863;DHT22;15994;51.796;13.006;2022-09-09T09:57:26;20.00;99.90
28863;DHT22;15994;51.796;13.006;2022-09-09T10:02:40;20.10;99.90
28863;DHT22;15994;51.796;13.006;2022-09-09T10:05:27;20.20;99.90
28863;DHT22;15994;51.796;13.006;2022-09-09T10:10:49;20.40;99.90
28863;DHT22;15994;51.796;13.006;2022-09-09T10:13:24;20.50;99.90
28863;DHT22;15994;51.796;13.006;2022-09-09T10:18:47;20.60;99.90
28863;DHT22;15994;51.796;13.006;2022-09-09T10:35:45;21.00;99.90
28863;DHT22;15994;51.796;13.006;2022-09-09T10:40:35;20.90;99.90
28863;DHT22;15994;51.796;13.006;2022-09-09T10:46:15;21.20;99.90
28863;DHT22;15994;51.796;13.006;2022-09-09T10:51:33;21.60;99.90
28863;DHT22;15994;51.796;13.006;2022-09-09T10:54:13;21.90;99.90
28863;DHT22;15994;51.796;13.006;2022-09-09T10:56:49;22.30;99.90
28863;DHT22;15994;51.796;13.006;2022-09-09T10:59:25;22.50;99.90
28863;DHT22;15994;51.796;13.006;2022-09-09T11:02:03;22.40;99.90
28863;DHT22;15994;51.796;13.006;2022-09-09T11:04:40;22.20;99.90
28863;DHT22;15994;51.796;13.006;2022-09-09T11:07:11;22.30;99.90
28863;DHT22;15994;51.796;13.006;2022-09-09T11:09:47;22.30;99.90
28863;DHT22;15994;51.796;13.006;2022-09-09T11:12:18;22.30;99.90
28863;DHT22;15994;51.796;13.006;2022-09-09T11:14:50;22.30;99.90
28863;DHT22;15994;51.796;13.006;2022-09-09T11:17:26;22.30;99.90
28863;DHT22;15994;51.796;13.006;2022-09-09T11:19:56;22.30;99.90
28863;DHT22;15994;51.796;13.006;2022-09-09T11:22:30;22.20;99.90
28863;DHT22;15994;51.796;13.006;2022-09-09T11:25:06;22.20;99.90
28863;DHT22;15994;51.796;13.006;2022-09-09T11:28:07;22.10;99.90
28863;DHT22;15994;51.796;13.006;2022-09-09T11:36:21;22.30;99.90
28863;DHT22;15994;51.796;13.006;2022-09-09T11:38:56;22.50;99.90
28863;DHT22;15994;51.796;13.006;2022-09-09T11:41:36;22.80;99.90
28863;DHT22;15994;51.796;13.006;2022-09-09T11:44:19;22.90;99.90
28863;DHT22;15994;51.796;13.006;2022-09-09T11:46:51;23.00;99.90
28863;DHT22;15994;51.796;13.006;2022-09-09T11:49:47;22.90;99.90
28863;DHT22;15994;51.796;13.006;2022-09-09T11:52:34;22.80;99.90
28863;DHT22;15994;51.796;13.006;2022-09-09T11:55:24;22.80;99.90
28863;DHT22;15994;51.796;13.006;2022-09-09T11:58:14;22.80;99.90
28863;DHT22;15994;51.796;13.006;2022-09-09T12:00:48;22.80;99.90
28863;DHT22;15994;51.796;13.006;2022-09-09T12:06:15;22.70;99.90
28863;DHT22;15994;51.796;13.006;2022-09-09T12:08:46;22.70;99.90
28863;DHT22;15994;51.796;13.006;2022-09-09T12:11:28;22.90;99.90
28863;DHT22;15994;51.796;13.006;2022-09-09T12:13:57;23.00;99.90
28863;DHT22;15994;51.796;13.006;2022-09-09T12:16:30;23.10;99.90
28863;DHT22;15994;51.796;13.006;2022-09-09T12:19:05;23.20;99.90
28863;DHT22;15994;51.796;13.006;2022-09-09T12:21:40;23.40;99.90
28863;DHT22;15994;51.796;13.006;2022-09-09T12:24:11;23.50;99.90
28863;DHT22;15994;51.796;13.006;2022-09-09T12:26:47;23.70;99.90
28863;DHT22;15994;51.796;13.006;2022-09-09T12:32:07;23.70;99.90
28863;DHT22;15994;51.796;13.006;2022-09-09T12:34:54;23.80;99.90
28863;DHT22;15994;51.796;13.006;2022-09-09T12:39:59;23.60;99.90
28863;DHT22;15994;51.796;13.006;2022-09-09T12:42:28;23.60;99.90
28863;DHT22;15994;51.796;13.006;2022-09-09T12:44:57;23.60;99.90
28863;DHT22;15994;51.796;13.006;2022-09-09T12:47:34;23.70;99.90
28863;DHT22;15994;51.796;13.006;2022-09-09T12:50:03;23.80;99.90
28863;DHT22;15994;51.796;13.006;2022-09-09T12:52:35;23.70;99.90
28863;DHT22;15994;51.796;13.006;2022-09-09T12:55:05;23.70;99.90
28863;DHT22;15994;51.796;13.006;2022-09-09T12:57:36;23.60;99.90
28863;DHT22;15994;51.796;13.006;2022-09-09T13:00:06;23.60;99.90
28863;DHT22;15994;51.796;13.006;2022-09-09T13:02:35;23.50;99.90
28863;DHT22;15994;51.796;13.006;2022-09-09T13:05:17;23.50;99.90
28863;DHT22;15994;51.796;13.006;2022-09-09T13:07:43;23.40;99.90
28863;DHT22;15994;51.796;13.006;2022-09-09T13:10:11;23.60;99.90
28863;DHT22;15994;51.796;13.006;2022-09-09T13:12:39;23.90;99.90
28863;DHT22;15994;51.796;13.006;2022-09-09T13:15:14;24.10;99.90
28863;DHT22;15994;51.796;13.006;2022-09-09T13:17:56;24.10;99.90
28863;DHT22;15994;51.796;13.006;2022-09-09T13:20:24;24.20;99.90
28863;DHT22;15994;51.796;13.006;2022-09-09T13:22:52;24.30;99.90
28863;DHT22;15994;51.796;13.006;2022-09-09T13:25:23;24.40;99.90
28863;DHT22;15994;51.796;13.006;2022-09-09T13:27:58;24.40;99.90
28863;DHT22;15994;51.796;13.006;2022-09-09T13:30:35;24.30;99.90
28863;DHT22;15994;51.796;13.006;2022-09-09T13:36:02;24.10;99.90
28863;DHT22;15994;51.796;13.006;2022-09-09T13:38:32;24.20;99.90
28863;DHT22;15994;51.796;13.006;2022-09-09T13:41:02;24.30;99.90
28863;DHT22;15994;51.796;13.006;2022-09-09T13:43:33;24.30;99.90
28863;DHT22;15994;51.796;13.006;2022-09-09T13:46:04;24.40;99.90
28863;DHT22;15994;51.796;13.006;2022-09-09T13:48:31;24.50;99.90
28863;DHT22;15994;51.796;13.006;2022-09-09T13:51:03;24.40;99.90
28863;DHT22;15994;51.796;13.006;2022-09-09T13:53:31;24.40;99.90
28863;DHT22;15994;51.796;13.006;2022-09-09T13:55:58;24.50;99.90
28863;DHT22;15994;51.796;13.006;2022-09-09T13:58:26;24.70;99.90
28863;DHT22;15994;51.796;13.006;2022-09-09T14:00:53;24.60;99.90
28863;DHT22;15994;51.796;13.006;2022-09-09T14:03:20;24.60;99.90
28863;DHT22;15994;51.796;13.006;2022-09-09T14:05:47;24.60;99.90
28863;DHT22;15994;51.796;13.006;2022-09-09T14:08:20;24.50;99.90
28863;DHT22;15994;51.796;13.006;2022-09-09T14:10:47;24.40;99.90
28863;DHT22;15994;51.796;13.006;2022-09-09T14:13:14;24.30;99.90
28863;DHT22;15994;51.796;13.006;2022-09-09T14:15:41;24.30;99.90
28863;DHT22;15994;51.796;13.006;2022-09-09T14:18:11;24.40;99.90
28863;DHT22;15994;51.796;13.006;2022-09-09T14:20:38;24.40;99.90
28863;DHT22;15994;51.796;13.006;2022-09-09T14:23:05;24.40;99.90
28863;DHT22;15994;51.796;13.006;2022-09-09T14:25:32;24.40;99.90
28863;DHT22;15994;51.796;13.006;2022-09-09T14:27:58;24.40;99.90
28863;DHT22;15994;51.796;13.006;2022-09-09T14:30:25;24.50;99.90
28863;DHT22;15994;51.796;13.006;2022-09-09T14:32:51;24.60;99.90
28863;DHT22;15994;51.796;13.006;2022-09-09T14:35:18;24.70;99.90
28863;DHT22;15994;51.796;13.006;2022-09-09T14:37:44;24.90;99.90
28863;DHT22;15994;51.796;13.006;2022-09-09T14:40:11;24.90;99.90
28863;DHT22;15994;51.796;13.006;2022-09-09T14:42:40;24.80;99.90
28863;DHT22;15994;51.796;13.006;2022-09-09T14:45:07;24.70;99.90
28863;DHT22;15994;51.796;13.006;2022-09-09T14:47:33;24.70;99.90
28863;DHT22;15994;51.796;13.006;2022-09-09T14:50:00;24.50;99.90
28863;DHT22;15994;51.796;13.006;2022-09-09T14:52:30;24.40;99.90
28863;DHT22;15994;51.796;13.006;2022-09-09T14:54:56;24.20;99.90
28863;DHT22;15994;51.796;13.006;2022-09-09T14:57:23;24.10;99.90
28863;DHT22;15994;51.796;13.006;2022-09-09T14:59:50;23.90;99.90
28863;DHT22;15994;51.796;13.006;2022-09-09T15:02:16;23.90;99.90
28863;DHT22;15994;51.796;13.006;2022-09-09T15:04:43;23.80;99.90
28863;DHT22;15994;51.796;13.006;2022-09-09T15:07:09;23.60;99.90
28863;DHT22;15994;51.796;13.006;2022-09-09T15:09:37;23.50;99.90
28863;DHT22;15994;51.796;13.006;2022-09-09T15:12:03;23.40;99.90
28863;DHT22;15994;51.796;13.006;2022-09-09T15:14:30;23.40;99.90
28863;DHT22;15994;51.796;13.006;2022-09-09T15:16:58;23.30;99.90
28863;DHT22;15994;51.796;13.006;2022-09-09T15:19:24;23.30;99.90
28863;DHT22;15994;51.796;13.006;2022-09-09T15:21:51;23.10;99.90
28863;DHT22;15994;51.796;13.006;2022-09-09T15:24:17;23.10;99.90
28863;DHT22;15994;51.796;13.006;2022-09-09T15:26:45;23.10;99.90
28863;DHT22;15994;51.796;13.006;2022-09-09T15:29:11;23.00;99.90
28863;DHT22;15994;51.796;13.006;2022-09-09T15:31:38;23.00;99.90
28863;DHT22;15994;51.796;13.006;2022-09-09T15:34:06;22.90;99.90
28863;DHT22;15994;51.796;13.006;2022-09-09T15:36:39;22.90;99.90
28863;DHT22;15994;51.796;13.006;2022-09-09T15:39:08;22.80;99.90
28863;DHT22;15994;51.796;13.006;2022-09-09T15:41:35;22.80;99.90
28863;DHT22;15994;51.796;13.006;2022-09-09T15:44:02;22.80;99.90
28863;DHT22;15994;51.796;13.006;2022-09-09T15:46:40;22.70;99.90
28863;DHT22;15994;51.796;13.006;2022-09-09T15:49:16;22.00;99.90
28863;DHT22;15994;51.796;13.006;2022-09-09T15:51:50;21.30;99.90
28863;DHT22;15994;51.796;13.006;2022-09-09T15:54:18;20.40;99.90
28863;DHT22;15994;51.796;13.006;2022-09-09T15:56:47;18.50;99.90
28863;DHT22;15994;51.796;13.006;2022-09-09T15:59:16;17.90;99.90
28863;DHT22;15994;51.796;13.006;2022-09-09T16:01:43;17.70;99.90
28863;DHT22;15994;51.796;13.006;2022-09-09T16:04:10;17.90;99.90
28863;DHT22;15994;51.796;13.006;2022-09-09T16:06:37;18.00;99.90
28863;DHT22;15994;51.796;13.006;2022-09-09T16:09:05;18.20;99.90
28863;DHT22;15994;51.796;13.006;2022-09-09T16:11:35;18.30;99.90
28863;DHT22;15994;51.796;13.006;2022-09-09T16:14:02;18.50;99.90
28863;DHT22;15994;51.796;13.006;2022-09-09T16:16:30;18.70;99.90
28863;DHT22;15994;51.796;13.006;2022-09-09T16:18:59;19.00;99.90
28863;DHT22;15994;51.796;13.006;2022-09-09T16:21:32;19.10;99.90
28863;DHT22;15994;51.796;13.006;2022-09-09T16:24:02;19.40;99.90
28863;DHT22;15994;51.796;13.006;2022-09-09T16:26:31;19.30;99.90
28863;DHT22;15994;51.796;13.006;2022-09-09T16:28:58;19.20;99.90
28863;DHT22;15994;51.796;13.006;2022-09-09T16:31:26;19.10;99.90
28863;DHT22;15994;51.796;13.006;2022-09-09T16:33:53;19.10;99.90
28863;DHT22;15994;51.796;13.006;2022-09-09T16:36:23;19.10;99.90
28863;DHT22;15994;51.796;13.006;2022-09-09T16:38:57;19.00;99.90
28863;DHT22;15994;51.796;13.006;2022-09-09T16:41:26;18.80;99.90
28863;DHT22;15994;51.796;13.006;2022-09-09T16:43:57;18.60;99.90
28863;DHT22;15994;51.796;13.006;2022-09-09T16:46:26;18.50;99.90
28863;DHT22;15994;51.796;13.006;2022-09-09T16:48:57;18.50;99.90
28863;DHT22;15994;51.796;13.006;2022-09-09T16:51:29;18.40;99.90
28863;DHT22;15994;51.796;13.006;2022-09-09T16:54:01;18.30;99.90
28863;DHT22;15994;51.796;13.006;2022-09-09T16:56:30;18.30;99.90
28863;DHT22;15994;51.796;13.006;2022-09-09T16:59:03;18.30;99.90
28863;DHT22;15994;51.796;13.006;2022-09-09T17:01:33;18.20;99.90
28863;DHT22;15994;51.796;13.006;2022-09-09T17:04:05;18.20;99.90
28863;DHT22;15994;51.796;13.006;2022-09-09T17:06:33;18.20;99.90